Time;durP1;ratioP1;P1;durP2;ratioP2;P2;SDS_P1;SDS_P2;PMS_P1;PMS_P2;Temp;Humidity;BMP_temperature;BMP_pressure;BME280_temperature;BME280_humidity;BME280_pressure;Samples;Min_cycle;Max_cycle;Signal;HPM_P1;HPM_P2
2022/10/13 00:44:57;;;;;;;;;19.00;19.00;;;;;11.99;73.23;101819.78;4934668;29;10331;-68
2022/10/13 00:47:27;;;;;;;;;21.75;19.50;;;;;12.00;73.56;101816.06;4934935;29;10430;-68
2022/10/13 00:49:54;;;;;;;;;21.50;21.50;;;;;11.99;73.71;101814.38;4936068;29;10464;-68
2022/10/13 00:52:23;;;;;;;;;22.00;20.25;;;;;11.99;73.98;101813.53;4937404;29;10209;-68
2022/10/13 00:54:50;;;;;;;;;20.50;19.00;;;;;12.01;73.98;101815.03;4934805;29;10405;-66
2022/10/13 00:57:19;;;;;;;;;22.50;19.00;;;;;12.01;74.14;101822.28;4935444;29;10264;-68
2022/10/13 00:59:47;;;;;;;;;23.00;19.50;;;;;12.01;74.08;101814.19;4935948;29;10405;-67
2022/10/13 01:02:14;;;;;;;;;28.75;23.50;;;;;11.98;74.37;101823.47;4935882;29;10411;-68
2022/10/13 01:04:45;;;;;;;;;19.25;18.50;;;;;12.00;74.43;101826.03;4935050;29;10376;-68
2022/10/13 01:07:14;;;;;;;;;19.75;18.00;;;;;11.99;74.75;101819.78;4934095;29;10314;-67
2022/10/13 01:09:41;;;;;;;;;21.25;19.00;;;;;12.01;74.89;101819.59;4933943;29;10287;-65
2022/10/13 01:12:23;;;;;;;;;18.50;18.50;;;;;12.03;74.52;101825.63;4934651;29;11003;-62
2022/10/13 01:15:10;;;;;;;;;23.00;21.75;;;;;12.02;74.63;101824.81;4934111;29;10121;-64
2022/10/13 01:17:37;;;;;;;;;21.50;20.25;;;;;12.03;75.08;101815.72;4934402;29;10307;-65
2022/10/13 01:20:20;;;;;;;;;22.50;17.25;;;;;12.05;74.92;101819.06;4933985;29;10368;-65
2022/10/13 01:23:08;;;;;;;;;19.50;16.00;;;;;12.06;74.93;101815.31;4934001;29;10310;-66
2022/10/13 01:25:52;;;;;;;;;22.50;19.75;;;;;12.09;75.04;101816.84;4934079;29;10272;-63
2022/10/13 01:28:33;;;;;;;;;22.75;21.50;;;;;12.06;75.22;101809.09;4948501;29;10361;-67
2022/10/13 01:31:10;;;;;;;;;16.75;16.75;;;;;12.05;75.38;101810.13;4933899;29;11093;-68
2022/10/13 01:33:49;;;;;;;;;25.00;22.75;;;;;12.04;75.63;101809.28;4934079;29;10286;-66
2022/10/13 01:36:34;;;;;;;;;22.75;20.75;;;;;12.04;75.68;101805.75;4914918;29;10227;-67
2022/10/13 01:39:22;;;;;;;;;24.75;20.25;;;;;12.05;75.84;101800.16;4914734;29;10234;-66
2022/10/13 01:41:54;;;;;;;;;21.50;19.75;;;;;12.05;75.86;101807.44;4914872;29;10164;-68
2022/10/13 01:44:29;;;;;;;;;22.25;20.00;;;;;12.07;76.08;101810.75;4931222;29;10300;-69
2022/10/13 01:46:57;;;;;;;;;24.25;20.50;;;;;12.05;76.14;101813.66;4933657;29;10208;-67
2022/10/13 01:49:29;;;;;;;;;19.50;18.25;;;;;12.08;76.41;101797.13;4933147;29;11139;-67
2022/10/13 01:52:01;;;;;;;;;25.25;20.50;;;;;12.05;76.32;101789.38;4933623;29;10140;-67
2022/10/13 01:54:28;;;;;;;;;21.50;18.25;;;;;12.04;76.55;101782.31;4933539;29;10257;-68
2022/10/13 01:56:56;;;;;;;;;26.00;22.00;;;;;12.03;77.03;101791.41;4933738;28;10289;-72
2022/10/13 01:59:26;;;;;;;;;29.25;25.50;;;;;12.02;77.14;101787.03;4933011;29;10361;-68
2022/10/13 02:02:20;;;;;;;;;23.50;23.00;;;;;12.04;77.17;101773.38;4933269;29;11139;-69
2022/10/13 02:04:58;;;;;;;;;16.75;16.00;;;;;12.06;77.27;101780.25;4918376;29;10478;-68
2022/10/13 02:07:41;;;;;;;;;30.00;28.00;;;;;12.07;77.49;101783.78;4916967;29;10332;-68
2022/10/13 02:10:15;;;;;;;;;24.25;24.25;;;;;12.04;77.55;101789.56;4932966;29;10400;-68
2022/10/13 02:12:47;;;;;;;;;25.50;21.25;;;;;12.02;77.72;101783.50;4933245;28;10299;-67
2022/10/13 02:15:19;;;;;;;;;24.50;22.00;;;;;12.00;77.98;101788.25;4933186;29;10207;-68
2022/10/13 02:17:45;;;;;;;;;26.00;23.25;;;;;11.98;78.09;101783.00;4933152;29;10366;-68
2022/10/13 02:20:15;;;;;;;;;24.00;20.75;;;;;11.97;78.15;101777.81;4932320;29;10603;-68
2022/10/13 02:22:46;;;;;;;;;26.25;26.25;;;;;11.93;78.40;101760.28;4932905;29;10403;-68
2022/10/13 02:25:12;;;;;;;;;19.00;18.50;;;;;11.94;78.31;101748.47;4932981;29;10624;-66
2022/10/13 02:27:39;;;;;;;;;22.75;19.00;;;;;11.95;78.82;101767.19;4932860;29;10384;-69
2022/10/13 02:30:06;;;;;;;;;19.75;18.25;;;;;11.96;78.79;101752.69;4932645;29;11169;-68
2022/10/13 02:32:32;;;;;;;;;23.75;21.25;;;;;11.96;78.67;101747.28;4932746;28;10464;-67
2022/10/13 02:34:59;;;;;;;;;22.50;20.75;;;;;11.97;78.83;101742.72;4933007;29;10463;-67
2022/10/13 02:37:25;;;;;;;;;18.25;18.25;;;;;12.01;78.98;101747.56;4933073;29;11117;-67
2022/10/13 02:39:52;;;;;;;;;17.75;17.25;;;;;12.04;78.81;101743.69;4932529;29;10047;-68
2022/10/13 02:42:18;;;;;;;;;19.00;17.00;;;;;12.08;78.72;101745.00;4947812;28;10048;-68
2022/10/13 02:44:45;;;;;;;;;19.75;16.25;;;;;12.10;78.83;101732.16;4932807;29;10265;-67
2022/10/13 02:47:12;;;;;;;;;18.50;16.50;;;;;12.11;78.59;101748.19;4933007;29;10064;-68
2022/10/13 02:49:38;;;;;;;;;18.25;16.75;;;;;12.14;78.50;101738.84;4932502;29;9952;-68
2022/10/13 02:52:04;;;;;;;;;19.75;18.00;;;;;12.14;78.49;101733.47;4932813;28;9965;-68
2022/10/13 02:54:31;;;;;;;;;15.25;14.25;;;;;12.14;78.49;101728.06;4933185;29;10123;-67
2022/10/13 02:56:57;;;;;;;;;15.75;15.25;;;;;12.13;78.17;101729.09;4932942;29;10095;-68
2022/10/13 02:59:24;;;;;;;;;25.00;19.50;;;;;12.12;78.60;101728.25;4932512;29;10045;-67
2022/10/13 03:01:50;;;;;;;;;14.00;11.75;;;;;12.12;78.29;101730.94;4932832;29;10108;-68
2022/10/13 03:04:17;;;;;;;;;17.25;14.75;;;;;12.13;78.52;101724.53;4933063;29;10145;-68
2022/10/13 03:06:43;;;;;;;;;17.50;16.25;;;;;12.14;78.56;101728.06;4932810;29;10277;-67
2022/10/13 03:09:11;;;;;;;;;22.25;19.25;;;;;12.15;78.28;101726.19;4932650;29;10351;-68
2022/10/13 03:11:40;;;;;;;;;14.75;14.75;;;;;12.15;78.41;101721.63;4932782;29;10353;-68
2022/10/13 03:14:06;;;;;;;;;20.00;18.50;;;;;12.16;78.49;101714.41;4932604;29;10205;-68
2022/10/13 03:16:33;;;;;;;;;18.75;18.25;;;;;12.15;78.75;101720.78;4931351;29;10356;-68
2022/10/13 03:18:59;;;;;;;;;18.25;17.00;;;;;12.16;78.80;101711.69;4933022;29;10362;-69
2022/10/13 03:21:26;;;;;;;;;21.75;17.75;;;;;12.15;78.56;101715.41;4932087;29;10284;-67
2022/10/13 03:23:52;;;;;;;;;26.00;21.25;;;;;12.14;78.57;101706.47;4932389;29;10115;-68
2022/10/13 03:26:19;;;;;;;;;25.50;23.50;;;;;12.14;78.90;101703.78;4932081;28;10543;-69
2022/10/13 03:28:50;;;;;;;;;21.75;21.75;;;;;12.13;78.84;101713.72;4932232;29;11328;-67
2022/10/13 03:31:17;;;;;;;;;29.75;25.00;;;;;12.13;78.94;101702.94;4932099;29;10515;-68
2022/10/13 03:33:45;;;;;;;;;22.50;21.50;;;;;12.13;79.08;101702.94;4935493;29;11337;-68
2022/10/13 03:36:12;;;;;;;;;27.25;24.25;;;;;12.17;79.23;101707.97;4935768;29;10471;-69
2022/10/13 03:38:41;;;;;;;;;25.75;22.50;;;;;12.16;79.12;101707.13;4935671;29;10468;-69
2022/10/13 03:41:10;;;;;;;;;26.00;25.50;;;;;12.16;79.28;101703.59;4935568;29;10471;-69
2022/10/13 03:43:37;;;;;;;;;25.50;23.00;;;;;12.17;79.37;101708.81;4935942;29;10465;-68
2022/10/13 03:46:05;;;;;;;;;27.25;25.00;;;;;12.18;79.23;101705.06;4936046;29;10368;-68
2022/10/13 03:48:33;;;;;;;;;21.50;19.75;;;;;12.17;79.41;101692.63;4934552;29;10512;-68
2022/10/13 03:51:03;;;;;;;;;24.25;22.75;;;;;12.15;79.61;101694.66;4935137;29;10429;-68
2022/10/13 03:53:29;;;;;;;;;24.00;21.75;;;;;12.14;79.68;101698.38;4935375;29;10524;-68
2022/10/13 03:55:55;;;;;;;;;25.50;24.00;;;;;12.14;79.70;101695.66;4935821;29;10300;-69
2022/10/13 03:58:23;;;;;;;;;21.75;19.75;;;;;12.15;79.72;101694.66;4935574;29;10466;-69
2022/10/13 04:00:51;;;;;;;;;17.50;17.00;;;;;12.15;79.80;101693.81;4935171;29;10255;-68
2022/10/13 04:03:18;;;;;;;;;33.50;26.00;;;;;12.15;79.89;101689.25;4935245;29;10279;-69
2022/10/13 04:05:45;;;;;;;;;26.00;22.00;;;;;12.18;80.22;101686.19;4934907;29;10568;-69
2022/10/13 04:08:13;;;;;;;;;22.00;20.00;;;;;12.20;80.02;101686.84;4935351;29;10205;-68
2022/10/13 04:10:39;;;;;;;;;24.50;23.75;;;;;12.22;79.96;101681.25;4924144;29;10222;-68
2022/10/13 04:13:06;;;;;;;;;19.75;19.00;;;;;12.22;80.18;101683.97;4935697;29;10290;-69
2022/10/13 04:15:39;;;;;;;;;23.50;21.25;;;;;12.24;80.10;101680.06;4934702;29;10101;-68
2022/10/13 04:18:07;;;;;;;;;19.25;16.75;;;;;12.25;79.92;101684.44;4934886;29;10448;-68
2022/10/13 04:20:36;;;;;;;;;23.00;17.50;;;;;12.26;79.99;101674.47;4934797;29;10034;-68
2022/10/13 04:23:03;;;;;;;;;21.25;19.25;;;;;12.26;80.19;101671.78;4935367;29;10111;-68
2022/10/13 04:25:29;;;;;;;;;20.00;18.25;;;;;12.28;80.10;101665.16;4935095;29;10203;-67
2022/10/13 04:27:56;;;;;;;;;19.25;14.25;;;;;12.31;80.13;101672.03;4934910;29;10120;-68
2022/10/13 04:30:22;;;;;;;;;19.25;15.75;;;;;12.32;80.00;101668.34;4934785;29;10084;-68
2022/10/13 04:32:48;;;;;;;;;16.25;16.25;;;;;12.33;79.90;101678.94;4935133;29;9913;-68
2022/10/13 04:35:15;;;;;;;;;19.50;16.75;;;;;12.33;79.83;101681.66;4935056;29;10826;-69
2022/10/13 04:37:42;;;;;;;;;13.50;13.50;;;;;12.34;79.97;101683.31;4934913;29;10293;-67
2022/10/13 04:40:14;;;;;;;;;15.50;15.25;;;;;12.34;79.86;101688.72;4934654;29;9892;-68
2022/10/13 04:42:41;;;;;;;;;17.25;17.00;;;;;12.35;79.81;101681.44;4933830;29;9968;-67
2022/10/13 04:45:07;;;;;;;;;16.75;15.75;;;;;12.32;79.69;101681.84;4934096;29;9847;-68
2022/10/13 04:47:38;;;;;;;;;22.25;21.25;;;;;12.28;79.87;101689.47;4934448;29;10125;-66
2022/10/13 04:50:05;;;;;;;;;29.50;27.75;;;;;12.24;79.92;101693.56;4934597;29;11152;-66
2022/10/13 04:52:33;;;;;;;;;28.50;25.25;;;;;12.23;80.21;101691.88;4934661;29;11107;-67
2022/10/13 04:54:59;;;;;;;;;18.50;18.50;;;;;12.23;80.41;101686.47;4934562;29;10572;-68
2022/10/13 04:57:26;;;;;;;;;24.50;22.75;;;;;12.23;80.53;101685.63;4933386;29;10326;-67
2022/10/13 04:59:55;;;;;;;;;27.50;27.00;;;;;12.22;80.70;101692.88;4934538;29;10216;-67
2022/10/13 05:02:21;;;;;;;;;31.00;28.75;;;;;12.19;80.94;101687.03;4917137;29;10642;-63
2022/10/13 05:04:48;;;;;;;;;24.75;23.00;;;;;12.20;81.11;101681.47;4915363;29;10504;-64
2022/10/13 05:07:14;;;;;;;;;21.50;20.00;;;;;12.23;81.33;101681.06;4915259;29;11147;-65
2022/10/13 05:09:44;;;;;;;;;22.75;21.00;;;;;12.24;81.38;101679.22;4928323;29;10202;-65
2022/10/13 05:12:11;;;;;;;;;30.50;24.00;;;;;12.25;81.42;101678.19;4934320;29;10300;-65
2022/10/13 05:14:37;;;;;;;;;17.25;14.50;;;;;12.27;81.40;101674.28;4934113;29;10308;-65
2022/10/13 05:17:06;;;;;;;;;23.25;19.00;;;;;12.28;81.40;101670.56;4934569;29;10071;-65
2022/10/13 05:19:32;;;;;;;;;25.25;20.50;;;;;12.31;81.26;101667.47;4932695;29;10207;-65
2022/10/13 05:21:59;;;;;;;;;25.75;23.25;;;;;12.31;81.31;101663.94;4934001;29;10102;-64
2022/10/13 05:24:35;;;;;;;;;28.00;24.25;;;;;12.31;81.13;101663.94;4932984;29;10470;-65
2022/10/13 05:27:08;;;;;;;;;18.25;15.25;;;;;12.32;81.11;101663.78;4933549;29;10295;-63
2022/10/13 05:29:35;;;;;;;;;22.50;21.75;;;;;12.33;81.42;101670.00;4933138;29;10043;-64
2022/10/13 05:32:02;;;;;;;;;18.50;17.00;;;;;12.30;81.44;101676.59;4930653;29;10104;-67
2022/10/13 05:34:32;;;;;;;;;33.25;26.00;;;;;12.31;81.54;101678.28;4947658;28;10263;-66
2022/10/13 05:36:59;;;;;;;;;27.50;22.50;;;;;12.31;81.50;101674.75;4933355;29;10434;-66
2022/10/13 05:39:26;;;;;;;;;25.50;22.25;;;;;12.33;81.60;101676.25;4932137;29;10289;-67
2022/10/13 05:41:52;;;;;;;;;23.50;23.50;;;;;12.35;81.43;101667.94;4914577;29;10306;-67
2022/10/13 05:44:20;;;;;;;;;28.75;27.00;;;;;12.33;81.80;101672.72;4917364;29;10661;-64
2022/10/13 05:46:53;;;;;;;;;27.75;25.00;;;;;12.32;81.88;101666.47;4933843;29;10537;-64
2022/10/13 05:49:20;;;;;;;;;22.50;22.00;;;;;12.36;81.89;101666.94;4931815;29;10412;-66
2022/10/13 05:51:49;;;;;;;;;21.50;21.25;;;;;12.37;81.98;101664.06;4933559;29;10953;-65
2022/10/13 05:54:23;;;;;;;;;27.00;24.25;;;;;12.37;82.05;101664.06;4933015;29;10985;-64
2022/10/13 05:57:07;;;;;;;;;26.75;23.75;;;;;12.38;82.00;101665.72;4931774;29;10337;-64
2022/10/13 05:59:38;;;;;;;;;32.25;27.50;;;;;12.38;82.13;101665.72;4932661;29;11112;-65
2022/10/13 06:02:08;;;;;;;;;30.75;26.75;;;;;12.39;82.34;101661.16;4933406;29;11111;-65
2022/10/13 06:04:40;;;;;;;;;31.00;24.50;;;;;12.42;82.53;101652.69;4932528;29;10338;-66
2022/10/13 06:07:08;;;;;;;;;27.25;24.00;;;;;12.42;82.34;101652.69;4933220;29;10209;-66
2022/10/13 06:09:37;;;;;;;;;25.75;23.00;;;;;12.45;82.20;101656.88;4932549;29;10333;-64
2022/10/13 06:12:05;;;;;;;;;25.50;23.25;;;;;12.44;82.60;101660.63;4933225;28;10290;-65
2022/10/13 06:14:32;;;;;;;;;28.00;24.00;;;;;12.46;82.45;101654.00;4932497;29;10263;-65
2022/10/13 06:17:00;;;;;;;;;26.25;24.25;;;;;12.47;82.40;101650.25;4932934;29;10363;-65
2022/10/13 06:19:26;;;;;;;;;31.25;25.25;;;;;12.47;82.33;101649.41;4932298;29;10407;-66
2022/10/13 06:21:53;;;;;;;;;22.75;22.25;;;;;12.49;82.42;101653.63;4932550;29;10399;-66
2022/10/13 06:24:19;;;;;;;;;20.75;20.75;;;;;12.52;82.57;101652.44;4931876;29;10410;-66
2022/10/13 06:26:46;;;;;;;;;24.00;22.25;;;;;12.53;82.44;101648.69;4929770;29;10054;-66
2022/10/13 06:29:12;;;;;;;;;26.50;24.50;;;;;12.54;82.47;101653.06;4927834;29;10153;-66
2022/10/13 06:31:38;;;;;;;;;24.00;19.00;;;;;12.56;82.40;101653.72;4932378;29;10285;-65
2022/10/13 06:34:06;;;;;;;;;29.00;24.75;;;;;12.54;82.53;101644.97;4931182;29;10022;-65
2022/10/13 06:36:32;;;;;;;;;29.50;25.50;;;;;12.58;82.57;101643.56;4938596;28;10320;-65
2022/10/13 06:38:59;;;;;;;;;31.75;26.00;;;;;12.58;82.74;101641.69;4933610;28;10375;-67
2022/10/13 06:41:25;;;;;;;;;31.50;26.00;;;;;12.59;82.79;101634.41;4931110;29;10292;-67
2022/10/13 06:43:51;;;;;;;;;31.25;22.75;;;;;12.64;82.81;101634.72;4931587;29;10138;-66
2022/10/13 06:46:19;;;;;;;;;18.25;18.00;;;;;12.65;82.58;101636.38;4927834;29;10148;-66
2022/10/13 06:48:49;;;;;;;;;21.50;19.00;;;;;12.67;82.40;101638.88;4925405;29;9968;-65
2022/10/13 06:51:16;;;;;;;;;19.00;16.75;;;;;12.68;82.37;101640.56;4924212;29;9964;-66
2022/10/13 06:53:42;;;;;;;;;17.50;16.00;;;;;12.68;82.28;101636.00;4919534;29;10133;-65
2022/10/13 06:56:09;;;;;;;;;18.25;16.75;;;;;12.68;82.36;101627.03;4927236;29;9953;-65
2022/10/13 06:58:36;;;;;;;;;28.75;27.75;;;;;12.66;82.21;101643.47;4929974;29;10050;-67
2022/10/13 07:01:04;;;;;;;;;30.50;26.75;;;;;12.65;82.35;101644.50;4928705;29;10270;-65
2022/10/13 07:03:31;;;;;;;;;28.75;23.00;;;;;12.62;82.45;101650.25;4929812;29;10311;-66
2022/10/13 07:06:02;;;;;;;;;23.00;21.25;;;;;12.66;82.56;101653.44;4929348;29;10355;-68
2022/10/13 07:08:30;;;;;;;;;24.50;23.00;;;;;12.69;82.75;101648.50;4934244;29;10242;-67
2022/10/13 07:10:56;;;;;;;;;32.00;25.50;;;;;12.68;82.60;101652.22;4932115;29;10110;-67
2022/10/13 07:13:23;;;;;;;;;26.00;22.00;;;;;12.70;82.48;101650.16;4935458;29;10383;-65
2022/10/13 07:15:49;;;;;;;;;25.00;23.00;;;;;12.72;82.72;101650.81;4938095;28;10140;-66
2022/10/13 07:18:15;;;;;;;;;23.00;22.50;;;;;12.74;82.88;101648.75;4935381;29;10241;-66
2022/10/13 07:20:42;;;;;;;;;22.50;20.75;;;;;12.75;82.64;101650.41;4936139;28;9982;-64
2022/10/13 07:23:08;;;;;;;;;25.50;24.25;;;;;12.76;82.60;101649.41;4935917;29;10128;-67
2022/10/13 07:25:34;;;;;;;;;20.75;17.75;;;;;12.79;82.67;101653.59;4925791;28;10300;-65
2022/10/13 07:28:02;;;;;;;;;23.50;19.50;;;;;12.78;82.55;101649.22;4934365;29;10059;-67
2022/10/13 07:30:29;;;;;;;;;32.25;28.00;;;;;12.77;82.52;101644.84;4930991;28;10142;-66
2022/10/13 07:32:55;;;;;;;;;30.75;28.00;;;;;12.75;82.60;101647.72;4932155;29;10260;-67
2022/10/13 07:35:24;;;;;;;;;29.00;28.25;;;;;12.75;82.58;101647.72;4935180;29;10158;-65
2022/10/13 07:37:56;;;;;;;;;25.25;21.75;;;;;12.74;82.88;101640.66;4946795;29;10292;-67
2022/10/13 07:40:22;;;;;;;;;30.75;26.50;;;;;12.76;82.76;101643.16;4934584;29;10082;-66
2022/10/13 07:42:49;;;;;;;;;32.25;28.25;;;;;12.76;82.92;101641.31;4952038;28;10053;-67
2022/10/13 07:45:16;;;;;;;;;27.50;26.50;;;;;12.76;82.91;101638.59;4934560;29;10151;-65
2022/10/13 07:47:42;;;;;;;;;20.75;17.25;;;;;12.77;82.94;101640.28;4934098;29;10187;-64
2022/10/13 07:50:09;;;;;;;;;22.00;21.50;;;;;12.76;82.98;101626.94;4929926;29;10079;-66
2022/10/13 07:52:35;;;;;;;;;26.00;21.25;;;;;12.74;83.27;101629.84;4935352;29;9982;-66
2022/10/13 07:55:02;;;;;;;;;26.25;21.50;;;;;12.78;83.11;101624.91;4935757;28;9955;-65
2022/10/13 07:57:29;;;;;;;;;29.50;29.25;;;;;12.77;83.10;101625.94;4936352;28;9897;-65
2022/10/13 07:59:55;;;;;;;;;29.50;26.00;;;;;12.79;83.09;101643.63;4938397;28;10108;-65
2022/10/13 08:02:21;;;;;;;;;33.50;29.00;;;;;12.79;83.32;101640.06;4945640;28;10234;-66
2022/10/13 08:04:48;;;;;;;;;22.50;19.25;;;;;12.83;83.16;101641.38;4934895;29;10057;-66
2022/10/13 08:07:15;;;;;;;;;20.75;18.00;;;;;12.86;83.28;101647.25;4949202;28;9866;-68
2022/10/13 08:09:42;;;;;;;;;30.00;26.50;;;;;12.86;83.13;101641.84;4932986;28;9986;-65
2022/10/13 08:12:08;;;;;;;;;23.75;19.25;;;;;12.91;83.23;101640.44;4939614;28;10226;-67
2022/10/13 08:14:34;;;;;;;;;29.50;28.75;;;;;12.92;83.15;101642.09;4934229;28;10108;-65
2022/10/13 08:17:01;;;;;;;;;31.75;29.00;;;;;12.93;83.44;101635.69;4934361;29;10170;-66
2022/10/13 08:19:27;;;;;;;;;28.00;26.75;;;;;12.95;83.41;101637.16;4935092;28;10406;-68
2022/10/13 08:21:54;;;;;;;;;31.75;27.75;;;;;12.97;83.33;101639.69;4948138;29;10251;-66
2022/10/13 08:24:26;;;;;;;;;28.00;26.50;;;;;12.99;83.58;101640.31;4934462;29;10256;-65
2022/10/13 08:26:53;;;;;;;;;26.00;24.25;;;;;13.03;83.63;101639.72;4933559;29;10056;-64
2022/10/13 08:29:19;;;;;;;;;39.25;31.00;;;;;13.03;83.83;101638.91;4931409;29;10176;-65
2022/10/13 08:31:50;;;;;;;;;28.00;27.00;;;;;13.05;83.81;101647.66;4934264;29;10297;-65
2022/10/13 08:34:17;;;;;;;;;28.25;25.50;;;;;13.06;83.68;101639.38;4934084;29;10367;-68
2022/10/13 08:36:43;;;;;;;;;32.50;28.50;;;;;13.12;83.88;101645.84;4933407;29;11036;-65
2022/10/13 08:39:10;;;;;;;;;29.00;26.25;;;;;13.15;83.86;101634.66;4933949;29;10267;-65
2022/10/13 08:41:39;;;;;;;;;25.50;22.50;;;;;13.23;83.59;101633.75;4934124;29;11024;-68
2022/10/13 08:44:18;;;;;;;;;29.00;26.25;;;;;13.23;83.69;101634.56;4934332;29;9961;-65
2022/10/13 08:47:21;;;;;;;;;34.50;31.00;;;;;13.27;83.67;101637.75;4928819;29;10123;-67
2022/10/13 08:49:48;;;;;;;;;40.25;29.75;;;;;13.28;83.79;101634.00;4934913;29;10157;-66
2022/10/13 08:52:25;;;;;;;;;28.00;20.75;;;;;13.31;83.95;101636.31;4937682;29;10246;-67
2022/10/13 08:54:53;;;;;;;;;21.25;18.50;;;;;13.34;83.69;101644.88;4940729;28;9959;-65
2022/10/13 08:57:22;;;;;;;;;31.00;22.75;;;;;13.35;83.97;101643.03;4944660;28;9954;-67
2022/10/13 08:59:50;;;;;;;;;28.25;25.25;;;;;13.35;83.66;101622.22;4916637;28;9779;-66
2022/10/13 09:02:29;;;;;;;;;22.25;22.25;;;;;13.39;83.54;101628.06;4932175;28;9859;-66
2022/10/13 09:05:00;;;;;;;;;24.75;22.75;;;;;13.41;83.77;101620.63;4934391;29;9614;-66
2022/10/13 09:07:31;;;;;;;;;24.50;22.75;;;;;13.40;83.33;101618.09;4933089;29;9942;-65
2022/10/13 09:09:58;;;;;;;;;19.25;19.25;;;;;13.42;83.62;101616.06;4930896;29;9801;-66
2022/10/13 09:12:26;;;;;;;;;23.50;21.25;;;;;13.44;83.61;101617.50;4944313;28;9782;-66
2022/10/13 09:15:06;;;;;;;;;27.50;25.00;;;;;13.43;83.51;101618.53;4944921;28;9728;-65
2022/10/13 09:17:33;;;;;;;;;22.25;20.00;;;;;13.44;83.79;101616.69;4934165;29;10073;-66
2022/10/13 09:20:20;;;;;;;;;20.00;18.75;;;;;13.46;83.43;101620.88;4933176;29;9811;-66
2022/10/13 09:23:21;;;;;;;;;22.50;20.75;;;;;13.48;83.28;101620.66;4934124;29;9786;-65
2022/10/13 09:25:50;;;;;;;;;23.00;21.00;;;;;13.48;83.50;101624.19;4927027;29;9708;-66
2022/10/13 09:28:21;;;;;;;;;17.75;16.25;;;;;13.52;83.49;101627.38;4932907;29;9974;-65
2022/10/13 09:31:00;;;;;;;;;29.25;28.75;;;;;13.52;83.37;101635.47;4931805;29;9772;-66
2022/10/13 09:33:26;;;;;;;;;30.75;27.25;;;;;13.49;83.56;101627.75;4932444;29;10072;-66
2022/10/13 09:35:56;;;;;;;;;29.25;25.00;;;;;13.51;83.63;101639.22;4932690;29;10614;-65
2022/10/13 09:38:24;;;;;;;;;24.75;22.50;;;;;13.53;83.90;101635.31;4931233;29;10819;-67
2022/10/13 09:41:05;;;;;;;;;26.25;23.50;;;;;13.55;83.52;101635.94;4932403;29;9821;-66
2022/10/13 09:43:34;;;;;;;;;24.75;21.75;;;;;13.55;83.59;101643.22;4933632;29;9793;-65
2022/10/13 09:46:10;;;;;;;;;29.00;27.25;;;;;13.52;83.82;101633.59;4931901;29;9896;-67
2022/10/13 09:48:41;;;;;;;;;26.00;24.00;;;;;13.48;83.77;101640.44;4937857;28;10050;-65
2022/10/13 09:51:31;;;;;;;;;30.50;25.75;;;;;13.48;83.69;101640.44;4938348;29;9972;-65
2022/10/13 09:54:01;;;;;;;;;26.25;21.00;;;;;13.47;84.26;101635.22;4935186;28;10623;-67
2022/10/13 09:56:27;;;;;;;;;23.00;22.00;;;;;13.51;84.23;101637.34;4932769;28;10057;-65
2022/10/13 09:59:27;;;;;;;;;21.25;18.50;;;;;13.55;83.68;101637.81;4947140;28;9808;-66
2022/10/13 10:01:56;;;;;;;;;28.00;25.00;;;;;13.54;83.84;101638.84;4935803;28;9856;-65
2022/10/13 10:04:32;;;;;;;;;28.25;23.00;;;;;13.55;83.63;101635.09;4932576;29;10086;-67
2022/10/13 10:07:08;;;;;;;;;25.50;23.75;;;;;13.53;83.89;101635.31;4932848;29;9961;-66
2022/10/13 10:09:43;;;;;;;;;20.00;20.00;;;;;13.59;83.90;101639.09;4932473;29;9984;-65
2022/10/13 10:12:16;;;;;;;;;20.75;20.50;;;;;13.57;83.79;101631.19;4933189;29;9702;-66
2022/10/13 10:14:43;;;;;;;;;20.50;19.25;;;;;13.59;83.84;101639.09;4932299;29;9808;-67
2022/10/13 10:17:37;;;;;;;;;22.25;18.25;;;;;13.62;83.60;101635.16;4933020;28;9620;-67
2022/10/13 10:20:15;;;;;;;;;24.75;20.50;;;;;13.58;83.82;101640.13;4931226;29;9662;-66
2022/10/13 10:22:48;;;;;;;;;21.00;21.00;;;;;13.58;83.83;101629.31;4951075;28;9800;-67
2022/10/13 10:25:24;;;;;;;;;21.25;19.75;;;;;13.61;83.64;101628.88;4927948;29;9857;-66
2022/10/13 10:28:04;;;;;;;;;18.00;16.75;;;;;13.64;83.72;101625.81;4926325;29;9732;-66
2022/10/13 10:30:35;;;;;;;;;20.25;18.25;;;;;13.68;83.68;101620.84;4915281;29;10429;-66
2022/10/13 10:33:12;;;;;;;;;21.25;16.75;;;;;13.68;83.52;101615.44;4931450;29;9685;-66
2022/10/13 10:36:05;;;;;;;;;20.00;15.00;;;;;13.71;83.65;101615.03;4930712;29;9884;-66
2022/10/13 10:38:42;;;;;;;;;19.25;17.00;;;;;13.76;83.68;101618.00;4931732;29;10424;-66
2022/10/13 10:41:17;;;;;;;;;19.75;17.75;;;;;13.79;83.55;101602.19;4931148;29;9792;-66
2022/10/13 10:44:09;;;;;;;;;24.00;18.50;;;;;13.80;83.56;101614.69;4921261;29;9726;-68
2022/10/13 10:46:41;;;;;;;;;23.00;21.75;;;;;13.82;83.48;101612.66;4928407;29;9690;-68
2022/10/13 10:49:30;;;;;;;;;20.00;18.50;;;;;13.83;83.24;101613.47;4920880;29;9851;-67
2022/10/13 10:51:58;;;;;;;;;18.25;18.25;;;;;13.81;83.02;101610.97;4924148;29;9718;-65
2022/10/13 10:54:40;;;;;;;;;13.00;13.00;;;;;13.80;83.29;101619.28;4930303;29;9782;-66
2022/10/13 10:57:28;;;;;;;;;28.25;23.75;;;;;13.78;82.94;101613.22;4922846;29;9680;-65
2022/10/13 11:00:11;;;;;;;;;26.75;22.25;;;;;13.75;83.17;101622.56;4930500;29;9818;-66
2022/10/13 11:02:41;;;;;;;;;28.00;23.00;;;;;13.72;83.36;101622.13;4930626;29;10692;-70
2022/10/13 11:05:07;;;;;;;;;15.00;14.00;;;;;13.67;82.87;101611.91;4933734;29;9714;-69
2022/10/13 11:07:44;;;;;;;;;12.75;10.25;;;;;13.64;83.23;101616.84;4932368;29;9753;-70
2022/10/13 11:10:15;;;;;;;;;10.33;7.67;;;;;13.66;83.58;101612.09;4930652;29;9414;-69
2022/10/13 11:12:50;;;;;;;;;9.33;9.33;;;;;13.68;83.20;101604.59;4931867;29;9311;-69
2022/10/13 11:15:37;;;;;;;;;8.33;8.33;;;;;13.70;83.25;101608.81;4929961;29;9318;-68
2022/10/13 11:18:42;;;;;;;;;5.67;5.67;;;;;13.70;83.13;101608.81;4931608;29;9325;-69
2022/10/13 11:21:09;;;;;;;;;8.00;8.00;;;;;13.74;83.36;101601.97;4929977;28;9455;-70
2022/10/13 11:23:43;;;;;;;;;7.00;7.00;;;;;13.74;83.18;101604.66;4925951;29;9387;-69
2022/10/13 11:26:30;;;;;;;;;11.00;8.00;;;;;13.74;83.19;101604.66;4929890;29;9371;-67
2022/10/13 11:28:58;;;;;;;;;4.67;4.33;;;;;13.76;83.12;101601.75;4941467;29;10249;-68
2022/10/13 11:31:31;;;;;;;;;5.67;5.67;;;;;13.78;83.20;101597.84;4931014;29;9392;-69
2022/10/13 11:34:02;;;;;;;;;4.00;4.00;;;;;13.81;82.94;101594.75;4923237;29;9329;-68
2022/10/13 11:36:48;;;;;;;;;2.33;2.33;;;;;13.77;82.61;101589.91;4931519;29;9179;-69
2022/10/13 11:39:25;;;;;;;;;5.00;4.67;;;;;13.75;82.43;101590.09;4930409;29;9884;-69
2022/10/13 11:42:11;;;;;;;;;4.00;4.00;;;;;13.75;82.50;101579.28;4932221;29;9231;-68
2022/10/13 11:44:49;;;;;;;;;5.00;3.00;;;;;13.72;82.26;101581.53;4929589;29;9259;-69
2022/10/13 11:48:04;;;;;;;;;5.67;3.00;;;;;13.73;81.99;101580.50;4931255;29;9081;-68
2022/10/13 11:50:55;;;;;;;;;2.33;2.33;;;;;13.70;82.11;101567.38;4934448;29;9183;-70
2022/10/13 11:53:26;;;;;;;;;4.33;3.00;;;;;13.72;82.18;101568.00;4932982;29;9224;-70
2022/10/13 11:55:55;;;;;;;;;5.00;5.00;;;;;13.71;81.96;101567.19;4935209;29;9094;-69
2022/10/13 11:58:30;;;;;;;;;3.33;3.33;;;;;13.74;81.92;101563.25;4938752;28;9315;-70
2022/10/13 12:00:58;;;;;;;;;2.67;2.00;;;;;13.76;82.13;101559.28;4937980;28;9192;-69
2022/10/13 12:03:31;;;;;;;;;3.67;3.67;;;;;13.77;81.73;101563.69;4939311;28;9062;-69
2022/10/13 12:06:25;;;;;;;;;3.00;3.00;;;;;13.79;82.08;101566.19;4937441;28;9318;-69
2022/10/13 12:08:51;;;;;;;;;2.00;1.00;;;;;13.79;81.67;101556.19;4935383;29;9169;-70
2022/10/13 12:11:27;;;;;;;;;2.00;2.00;;;;;13.81;81.76;101567.69;4934996;29;9991;-70
2022/10/13 12:13:55;;;;;;;;;3.00;2.33;;;;;13.83;81.95;101565.59;4931418;28;9184;-69